Bewolking Meer informatie Parkstad Weather Satellite


Neerslagradar Meer informatie Parkstad Rain Snow Radar


Onweersbuien Meer informatie Parkstad Lighntning


24/7 Weercamera Meer informatie Parkstad Weathercam


Natuurbrandrisico
CBI






Het weer levert geen direct gevaar op in Parkstad.    Er zijn geen waarschuwingen afgegeven voor Parkstad (045)

METAR rapporten vliegvelden

   
EHBK - Beek Nederland
Gewijzigd: 19-09-2019 18:55
Gedeeltelijk bewolkt  
Gedeeltelijk bewolkt  
   Wind: NO 13 km/h
Wind: NO 13 km/h
Temperatuur: 15°C
Dauwpunt: 4°C
Vochtigheid: 48%
Barometer: 1029 hPa
Satelliet beelden: Gedeeltelijk bewolkt
Zicht: meer dan 10 km
Bewolking: Gedeeltelijk bewolkt
EHBK 191655Z AUTO 05007KT 9999 NSC 15/04 Q1029 NOSIG
EHBK - Maastricht Nederland
Gewijzigd: 19-09-2019 18:55
Gedeeltelijk bewolkt  
Gedeeltelijk bewolkt  
   Wind: NO 13 km/h
Wind: NO 13 km/h
Temperatuur: 15°C
Dauwpunt: 4°C
Vochtigheid: 48%
Barometer: 1029 hPa
Satelliet beelden: Gedeeltelijk bewolkt
Zicht: meer dan 10 km
Bewolking: Gedeeltelijk bewolkt
EHBK 191655Z AUTO 05007KT 9999 NSC 15/04 Q1029 NOSIG
EBLG - Liège België
Gewijzigd: 19-09-2019 18:50
Helder  
Helder  
   Wind: NO 16.7 km/h
Wind: NO 16.7 km/h
Temperatuur: 15°C
Dauwpunt: 3°C
Vochtigheid: 45%
Barometer: 1029 hPa
Zicht: meer dan 10 km
Bewolking: Helder
EBLG 191650Z 05009KT CAVOK 15/03 Q1029 NOSIG
EDDK - Köln/Bonn Duitsland
Gewijzigd: 19-09-2019 18:50
Helder  
Helder  
   Wind: NNO 9.3 km/h
Wind: NNO 9.3 km/h
Temperatuur: 16°C
Dauwpunt: 3°C
Vochtigheid: 42%
Barometer: 1029 hPa
Zicht: meer dan 10 km
Bewolking: Helder
EDDK 191650Z 03005KT CAVOK 16/03 Q1029 NOSIG
EDDL - Düsseldorf Duitsland
Gewijzigd: 19-09-2019 18:50
Helder  
Helder  
   Wind: Noorden 9.3 km/h
Wind: Noorden 9.3 km/h
Temperatuur: 16°C
Dauwpunt: 4°C
Vochtigheid: 45%
Barometer: 1029 hPa
Zicht: meer dan 10 km
Bewolking: Helder
EDDL 191650Z 36005KT 330V030 CAVOK 16/04 Q1029 NOSIG
EHEH - Eindhoven Nederland
Gewijzigd: 19-09-2019 18:55
Bewolking  
Bewolking  
   Wind: Noorden 11.1 km/h
Wind: Noorden 11.1 km/h
Temperatuur: 16°C
Dauwpunt: 6°C
Vochtigheid: 52%
Barometer: 1030 hPa
Satelliet beelden: Bewolking
Zicht: meer dan 10 km
Bewolking: Bewolking 11582 m
EHEH 191655Z AUTO 01006KT 330V060 9999 OVC380 16/06 Q1030 BLU 03006KT CAVOK
ELLX - Luxemburg Luxemburg
Gewijzigd: 19-09-2019 18:50
Helder  
Helder  
   Wind: Oosten 13 km/h
Wind: Oosten 13 km/h
Temperatuur: 15°C
Dauwpunt: 1°C
Vochtigheid: 39%
Barometer: 1028 hPa
Zicht: meer dan 10 km
Bewolking: Helder
ELLX 191650Z 08007KT 040V110 CAVOK 15/01 Q1028 NOSIG
EGLL - London England
Gewijzigd: 19-09-2019 18:50
Helder  
Helder  
   Wind: Oosten 13 km/h
Wind: Oosten 13 km/h
Temperatuur: 21°C
Dauwpunt: 9°C
Vochtigheid: 46%
Barometer: 1029 hPa
Satelliet beelden: Helder
Zicht: meer dan 10 km
Bewolking: Helder
EGLL 191650Z AUTO 10007KT 9999 NCD 21/09 Q1029
EBAW - Antwerpen België
Gewijzigd: 19-09-2019 18:50
Licht bewolkt  
Licht bewolkt  
   Wind: NNO 11.1 km/h
Wind: NNO 11.1 km/h
Temperatuur: 16°C
Dauwpunt: 6°C
Vochtigheid: 52%
Barometer: 1030 hPa
Satelliet beelden: Licht bewolkt
Zicht: meer dan 10 km
Bewolking: Licht bewolkt 1372 m
EBAW 191650Z 03006KT 9999 FEW045 16/06 Q1030 NOSIG
EBOS - Oostende België
Gewijzigd: 19-09-2019 18:50
Licht bewolkt  
Licht bewolkt  
   Wind: NO 16.7 km/h
Wind: NO 16.7 km/h
Temperatuur: 16°C
Dauwpunt: 9°C
Vochtigheid: 63%
Barometer: 1030 hPa
Satelliet beelden: Licht bewolkt
Zicht: meer dan 10 km
Bewolking: Licht bewolkt 1219 m
EBOS 191650Z 04009KT 9999 FEW040 16/09 Q1030 NOSIG
LEAL - La Nucia Spanje
Gewijzigd: 19-09-2019 19:00
Licht bewolkt  
Licht bewolkt  
   Wind: Oosten 11.1 km/h
Wind: Oosten 11.1 km/h
Temperatuur: 25°C
Dauwpunt: 20°C
Vochtigheid: 74%
Barometer: 1016 hPa
Satelliet beelden: Licht bewolkt
Zicht: meer dan 10 km
Bewolking: Licht bewolkt 488 m
LEAL 191700Z 09006KT 060V140 9999 FEW016 25/20 Q1016 NOSIG
TNCA - Oranjestad Aruba
Gewijzigd: 19-09-2019 19:00
Licht bewolkt  
Licht bewolkt  
   Wind: WZW 11.1 km/h
Wind: WZW 11.1 km/h
Temperatuur: 31°C
Gevoelstemperatuur: 39°C
Dauwpunt: 26°C
Vochtigheid: 75%
Barometer: 1008 hPa
Satelliet beelden: Licht bewolkt
Zicht: meer dan 10 km
Bewolking: Licht bewolkt 762 m
TNCA 191700Z 25006KT 220V280 9999 FEW025 31/26 Q1008 NOSIG
TNCC - Willemstad Curacao
Gewijzigd: 19-09-2019 19:00
Licht bewolkt  
Licht bewolkt  
   Wind: Oosten 9.3 km/h
Wind: Oosten 9.3 km/h
Temperatuur: 31°C
Gevoelstemperatuur: 37°C
Dauwpunt: 24°C
Vochtigheid: 66%
Satelliet beelden: Licht bewolkt
Zicht: meer dan 10 km
Bewolking: Licht bewolkt 762 m
TNCC 191700Z 08005KT 050V110 9999 FEW025 31/24 Q100
MTPP - Port au Prince Haitië
Gewijzigd: 19-09-2019 18:51
Licht bewolkt  
Licht bewolkt  
   Wind: Oosten 18.5 km/h
Wind: Oosten 18.5 km/h
Temperatuur: 32°C
Gevoelstemperatuur: 38°C
Dauwpunt: 24°C
Vochtigheid: 63%
Barometer: 1008 hPa
Satelliet beelden: Licht bewolkt
Zicht: meer dan 10 km
Bewolking: Licht bewolkt 853 m
MTPP 191651Z 09010KT 060V130 9999 FEW028 32/24 Q1008 A2976
ENVA - Trondheim Noorwegen
Gewijzigd: 19-09-2019 18:50
Grotendeels bewolkt  
Grotendeels bewolkt  
   Wind: varieert 3.7 km/h
Wind: varieert 3.7 km/h
Temperatuur: 7°C
Dauwpunt: 5°C
Vochtigheid: 87%
Barometer: 1023 hPa
Satelliet beelden: Grotendeels bewolkt
Zicht: meer dan 10 km
Bewolking: Licht bewolkt 549 m,
Gedeeltelijk bewolkt 610 m,
Grotendeels bewolkt 1372 m
ENVA 191650Z VRB02KT 9999 FEW018 SCT020 BKN045 07/05 Q1023 TEMPO 27012KT RMK WIND 670FT 26011KT
ENBO - Bodø Noorwegen
Gewijzigd: 19-09-2019 18:50
Nabijgelegen buien, Gedeeltelijk bewolkt  
Nabijgelegen buien, Gedeeltelijk bewolkt  
   Wind: WNW 24.1 km/h
Wind: WNW 24.1 km/h
Temperatuur: 7°C
Voelt als: 3°C
Dauwpunt: 3°C
Vochtigheid: 76%
Barometer: 1018 hPa
Satelliet beelden: Gedeeltelijk bewolkt
Zicht: meer dan 10 km
Bewolking: Licht bewolkt 610 m,
Gedeeltelijk bewolkt 1524 m
ENBO 191650Z 30013KT 9999 VCSH FEW020CB SCT050 07/03 Q1018 TEMPO SHRA
ETNG - Geilenkirchen Duitsland
Gewijzigd: 19-09-2019 18:50
Helder  
Helder  
   Wind: NNO 9.3 km/h
Wind: NNO 9.3 km/h
Temperatuur: 16°C
Dauwpunt: 4°C
Vochtigheid: 45%
Barometer: 1029 hPa
Zicht: meer dan 10 km
Bewolking: Helder
ETNG 191650Z 03005KT CAVOK 16/04 Q1029 NOSIG
 

Script ontwikkeld door  Saratoga-weather.org Aangepast voor de template door  Weerstation Leuven

U vindt ons ook hier:

Het Weer Aktueel

WOW Nederland KNMI

Vereniging voor Weerkunde en Klimatologie

UK Met Office Weather Observation Website (WOW)

WeatherCloud

Weather Underground

Awekas

Weatherlink IP

HAMweather, WeatherForYou, PWS Weather

Citizen Weather Observer Program (CWOP)

Apparatuur in gebruik:

Hardwareleverancier
Weerhuisje

Weerstation
Vantage Pro2+ UV

Weercomputer's
alix3d2 & wl330n

Weerprogramma's
Smartbedded

Satelliet NOAA's
WRX137 & KX137

Satelliet Eumetsat
Ayecka SR1 & Triax

Bliksemdetectie
Boltek StormTracker

Webleverancier
F-Service

Weerhuisje

Vantage Pro2+ UV

alix3d2 & wl330n

Smartbedded

WRX137 & KX137

Ayecka SR1 & Triax

Boltek StormTracker

F-Service